Time;durP1;ratioP1;P1;durP2;ratioP2;P2;SDS_P1;SDS_P2;PMS_P1;PMS_P2;Temp;Humidity;BMP_temperature;BMP_pressure;BME280_temperature;BME280_humidity;BME280_pressure;Samples;Min_cycle;Max_cycle;Signal;HPM_P1;HPM_P2
2021/08/08 00:01:08;;;;;;;4.60;3.80;;;;;;;;;;5116665;27;20365;-72
2021/08/08 00:03:34;;;;;;;6.03;4.10;;;;;;;;;;5112806;27;20506;-72
2021/08/08 00:06:01;;;;;;;7.15;5.13;;;;;;;;;;5110724;27;20118;-71
2021/08/08 00:08:30;;;;;;;13.00;8.18;;;;;;;;;;5107295;27;20039;-71
2021/08/08 00:10:56;;;;;;;12.98;8.73;;;;;;;;;;5116588;27;20040;-71
2021/08/08 00:13:22;;;;;;;11.80;7.63;;;;;;;;;;5108729;27;20089;-71
2021/08/08 00:15:48;;;;;;;119.53;84.07;;;;;;;;;;5114519;27;20043;-71
2021/08/08 00:18:15;;;;;;;69.80;48.70;;;;;;;;;;5104957;27;20040;-71
2021/08/08 00:20:41;;;;;;;59.42;40.67;;;;;;;;;;5115161;27;20036;-71
2021/08/08 00:23:08;;;;;;;26.63;19.40;;;;;;;;;;5100753;27;20092;-71
2021/08/08 00:25:34;;;;;;;22.95;15.88;;;;;;;;;;5112813;27;20038;-71
2021/08/08 00:28:00;;;;;;;12.07;8.75;;;;;;;;;;5089361;28;20051;-71
2021/08/08 00:30:26;;;;;;;9.10;3.60;;;;;;;;;;5099429;27;20084;-71
2021/08/08 00:32:53;;;;;;;6.60;2.67;;;;;;;;;;5101887;27;20035;-72
2021/08/08 00:35:19;;;;;;;7.63;2.78;;;;;;;;;;5113445;27;20035;-71
2021/08/08 00:37:47;;;;;;;5.25;2.70;;;;;;;;;;5114512;27;20046;-71
2021/08/08 00:40:15;;;;;;;5.65;2.78;;;;;;;;;;5111984;27;20107;-71
2021/08/08 00:42:47;;;;;;;6.43;2.53;;;;;;;;;;5104540;27;20087;-71
2021/08/08 00:45:15;;;;;;;4.50;2.40;;;;;;;;;;5103656;27;20059;-71
2021/08/08 00:47:43;;;;;;;7.03;2.40;;;;;;;;;;5113867;27;20105;-71
2021/08/08 00:50:10;;;;;;;4.80;2.45;;;;;;;;;;5106739;27;20086;-71
2021/08/08 00:52:36;;;;;;;4.25;2.20;;;;;;;;;;5109959;27;20035;-71
2021/08/08 00:55:03;;;;;;;6.38;2.28;;;;;;;;;;5091122;27;20039;-71
2021/08/08 00:57:29;;;;;;;5.35;2.40;;;;;;;;;;5116917;27;20043;-71
2021/08/08 00:59:55;;;;;;;4.10;2.42;;;;;;;;;;5104244;27;20514;-71
2021/08/08 01:02:22;;;;;;;4.55;2.20;;;;;;;;;;5110415;27;20045;-71
2021/08/08 01:04:53;;;;;;;6.05;2.28;;;;;;;;;;5107504;27;20537;-71
2021/08/08 01:07:20;;;;;;;5.90;2.10;;;;;;;;;;5115917;27;20046;-71
2021/08/08 01:09:50;;;;;;;4.60;1.83;;;;;;;;;;5101989;27;20092;-71
2021/08/08 01:12:16;;;;;;;4.38;2.40;;;;;;;;;;5113574;27;20052;-71
2021/08/08 01:14:43;;;;;;;3.97;2.17;;;;;;;;;;5107081;27;20035;-71
2021/08/08 01:17:10;;;;;;;6.75;2.60;;;;;;;;;;5116692;27;20039;-71
2021/08/08 01:19:42;;;;;;;4.55;2.28;;;;;;;;;;5100475;28;20075;-71
2021/08/08 01:22:08;;;;;;;4.68;2.80;;;;;;;;;;5104931;28;20055;-71
2021/08/08 01:24:35;;;;;;;7.68;2.70;;;;;;;;;;5115590;28;20384;-71
2021/08/08 01:27:02;;;;;;;7.40;3.17;;;;;;;;;;5100682;28;20415;-72
2021/08/08 01:29:30;;;;;;;8.00;3.50;;;;;;;;;;5110153;28;20068;-72
2021/08/08 01:31:56;;;;;;;5.90;3.40;;;;;;;;;;5108809;28;20167;-72
2021/08/08 01:34:23;;;;;;;4.60;3.40;;;;;;;;;;5116511;28;20410;-72
2021/08/08 01:36:49;;;;;;;7.22;3.42;;;;;;;;;;5102181;28;20027;-72
2021/08/08 01:39:18;;;;;;;5.57;3.33;;;;;;;;;;5109071;28;20043;-72
2021/08/08 01:41:56;;;;;;;7.68;4.78;;;;;;;;;;5113701;27;20563;-72
2021/08/08 01:44:24;;;;;;;6.55;3.30;;;;;;;;;;5104345;27;20035;-72
2021/08/08 01:46:53;;;;;;;7.60;3.83;;;;;;;;;;5105081;27;20430;-72
2021/08/08 01:49:22;;;;;;;4.45;3.80;;;;;;;;;;5118956;27;20102;-72
2021/08/08 01:51:48;;;;;;;7.95;4.47;;;;;;;;;;5110410;27;20115;-72
2021/08/08 01:54:14;;;;;;;8.55;4.97;;;;;;;;;;5121696;27;20031;-72
2021/08/08 01:56:41;;;;;;;6.57;4.50;;;;;;;;;;5102591;27;20039;-71
2021/08/08 01:59:07;;;;;;;7.93;4.93;;;;;;;;;;5112218;27;20115;-71
2021/08/08 02:01:33;;;;;;;8.45;4.72;;;;;;;;;;5113816;27;20052;-71
2021/08/08 02:03:59;;;;;;;7.35;5.07;;;;;;;;;;5110001;27;20478;-72
2021/08/08 02:06:26;;;;;;;8.95;5.28;;;;;;;;;;5080842;27;20047;-72
2021/08/08 02:08:52;;;;;;;7.00;4.68;;;;;;;;;;5115761;27;20484;-72
2021/08/08 02:11:18;;;;;;;7.93;5.78;;;;;;;;;;5115845;27;20036;-72
2021/08/08 02:13:46;;;;;;;9.65;6.45;;;;;;;;;;5106731;27;20080;-72
2021/08/08 02:16:12;;;;;;;8.20;5.50;;;;;;;;;;5115917;27;20031;-72
2021/08/08 02:18:38;;;;;;;8.00;5.97;;;;;;;;;;5092830;27;20478;-72
2021/08/08 02:21:05;;;;;;;7.97;5.72;;;;;;;;;;5120199;27;20046;-72
2021/08/08 02:23:31;;;;;;;10.45;5.80;;;;;;;;;;5089468;28;20507;-71
2021/08/08 02:25:58;;;;;;;7.95;6.03;;;;;;;;;;5121688;27;20425;-71
2021/08/08 02:28:24;;;;;;;7.00;6.05;;;;;;;;;;5115298;27;20147;-71
2021/08/08 02:30:50;;;;;;;8.20;5.38;;;;;;;;;;5111411;27;20131;-71
2021/08/08 02:33:16;;;;;;;11.35;5.90;;;;;;;;;;5107387;27;20044;-71
2021/08/08 02:35:42;;;;;;;8.77;6.70;;;;;;;;;;5120000;27;20090;-71
2021/08/08 02:38:09;;;;;;;11.23;7.30;;;;;;;;;;5112672;27;20406;-71
2021/08/08 02:40:35;;;;;;;9.25;6.75;;;;;;;;;;5094143;28;20044;-71
2021/08/08 02:43:01;;;;;;;7.93;6.32;;;;;;;;;;5112436;27;20094;-71
2021/08/08 02:45:28;;;;;;;7.57;6.88;;;;;;;;;;5117932;27;20036;-71
2021/08/08 02:47:54;;;;;;;10.15;7.28;;;;;;;;;;5082506;27;20140;-71
2021/08/08 02:50:20;;;;;;;10.90;7.57;;;;;;;;;;5107492;27;20505;-71
2021/08/08 02:52:46;;;;;;;9.50;7.95;;;;;;;;;;5115530;27;20031;-71
2021/08/08 02:55:12;;;;;;;7.95;7.15;;;;;;;;;;5115910;27;20043;-71
2021/08/08 02:57:38;;;;;;;8.98;7.50;;;;;;;;;;5114665;27;20080;-71
2021/08/08 03:00:05;;;;;;;9.50;8.07;;;;;;;;;;5103272;27;20062;-72
2021/08/08 03:02:31;;;;;;;9.13;7.72;;;;;;;;;;5119217;27;20044;-72
2021/08/08 03:04:58;;;;;;;8.65;7.75;;;;;;;;;;5110643;27;20495;-72
2021/08/08 03:07:24;;;;;;;10.80;8.05;;;;;;;;;;5111511;27;20128;-72
2021/08/08 03:09:50;;;;;;;9.43;7.75;;;;;;;;;;5107841;27;20035;-72
2021/08/08 03:12:16;;;;;;;9.27;7.15;;;;;;;;;;5102675;27;20074;-71
2021/08/08 03:14:42;;;;;;;13.57;8.70;;;;;;;;;;5104208;27;20051;-71
2021/08/08 03:17:09;;;;;;;8.55;7.75;;;;;;;;;;5108447;27;20035;-71
2021/08/08 03:19:35;;;;;;;12.63;8.55;;;;;;;;;;5111167;27;20046;-71
2021/08/08 03:22:02;;;;;;;12.77;9.65;;;;;;;;;;5120502;27;20556;-71
2021/08/08 03:24:28;;;;;;;9.88;8.88;;;;;;;;;;5102533;27;20036;-71
2021/08/08 03:26:54;;;;;;;14.23;10.60;;;;;;;;;;5112727;27;20027;-71
2021/08/08 03:29:20;;;;;;;11.15;9.75;;;;;;;;;;5116228;27;20425;-71
2021/08/08 03:31:47;;;;;;;13.13;10.43;;;;;;;;;;5108562;27;20522;-71
2021/08/08 03:34:13;;;;;;;15.30;11.18;;;;;;;;;;5113791;27;20310;-71
2021/08/08 03:36:39;;;;;;;14.70;10.60;;;;;;;;;;5099169;27;20066;-71
2021/08/08 03:39:06;;;;;;;16.98;12.07;;;;;;;;;;5118999;27;20035;-71
2021/08/08 03:41:32;;;;;;;11.95;10.05;;;;;;;;;;5090581;27;20081;-71
2021/08/08 03:43:58;;;;;;;14.90;10.55;;;;;;;;;;5111190;27;20027;-71
2021/08/08 03:46:24;;;;;;;10.43;9.30;;;;;;;;;;5111495;27;20171;-71
2021/08/08 03:48:50;;;;;;;15.75;10.48;;;;;;;;;;5117158;27;20042;-71
2021/08/08 03:51:16;;;;;;;16.60;10.55;;;;;;;;;;5105248;27;20040;-71
2021/08/08 03:53:42;;;;;;;18.60;11.35;;;;;;;;;;5115626;27;20032;-71
2021/08/08 03:56:08;;;;;;;13.65;10.18;;;;;;;;;;5110197;27;20035;-71
2021/08/08 03:58:35;;;;;;;13.02;10.27;;;;;;;;;;5115603;27;20720;-71
2021/08/08 04:01:02;;;;;;;16.40;10.52;;;;;;;;;;5102487;27;20032;-71
2021/08/08 04:03:31;;;;;;;11.07;10.00;;;;;;;;;;5115197;27;20105;-71
2021/08/08 04:05:58;;;;;;;18.95;11.20;;;;;;;;;;5111495;27;20490;-71
2021/08/08 04:08:24;;;;;;;13.77;10.60;;;;;;;;;;5110079;27;20042;-71
2021/08/08 04:10:50;;;;;;;18.33;10.73;;;;;;;;;;5114927;27;20504;-71
2021/08/08 04:13:16;;;;;;;12.68;10.13;;;;;;;;;;5091157;28;20035;-71
2021/08/08 04:15:42;;;;;;;14.95;11.20;;;;;;;;;;5115770;27;20039;-71
2021/08/08 04:18:08;;;;;;;19.27;10.07;;;;;;;;;;5102472;27;20043;-71
2021/08/08 04:20:34;;;;;;;17.70;11.18;;;;;;;;;;5115090;27;20118;-71
2021/08/08 04:23:02;;;;;;;12.85;9.77;;;;;;;;;;5107129;27;20042;-71
2021/08/08 04:25:28;;;;;;;15.82;10.07;;;;;;;;;;5114381;27;20035;-71
2021/08/08 04:27:55;;;;;;;13.18;9.57;;;;;;;;;;5105901;27;20031;-71
2021/08/08 04:30:21;;;;;;;12.68;10.05;;;;;;;;;;5083966;28;20054;-71
2021/08/08 04:32:49;;;;;;;11.82;8.93;;;;;;;;;;5107011;27;20135;-71
2021/08/08 04:35:15;;;;;;;12.45;8.77;;;;;;;;;;5108441;28;20031;-71
2021/08/08 04:37:41;;;;;;;9.88;7.22;;;;;;;;;;5076817;28;20521;-71
2021/08/08 04:40:08;;;;;;;9.75;6.60;;;;;;;;;;5099462;27;20048;-71
2021/08/08 04:42:38;;;;;;;9.45;6.82;;;;;;;;;;5109796;27;20039;-71
2021/08/08 04:45:04;;;;;;;10.32;6.35;;;;;;;;;;5109682;27;20031;-71
2021/08/08 04:47:31;;;;;;;10.77;6.50;;;;;;;;;;5110959;27;20032;-71
2021/08/08 04:49:57;;;;;;;6.40;5.53;;;;;;;;;;5113756;27;20067;-71
2021/08/08 04:52:24;;;;;;;7.07;5.10;;;;;;;;;;5083403;28;20135;-71
2021/08/08 04:54:50;;;;;;;7.25;5.88;;;;;;;;;;5109267;27;20035;-71
2021/08/08 04:57:16;;;;;;;8.38;4.95;;;;;;;;;;5117840;27;20031;-71
2021/08/08 04:59:42;;;;;;;7.20;5.32;;;;;;;;;;5109115;27;20567;-71
2021/08/08 05:02:08;;;;;;;11.90;5.80;;;;;;;;;;5106860;27;20067;-70
2021/08/08 05:04:34;;;;;;;15.02;5.78;;;;;;;;;;5105647;27;20051;-69
2021/08/08 05:07:00;;;;;;;9.88;5.10;;;;;;;;;;5116914;27;20432;-69
2021/08/08 05:09:26;;;;;;;8.88;5.03;;;;;;;;;;5100441;27;20031;-69
2021/08/08 05:11:53;;;;;;;9.80;5.65;;;;;;;;;;5112580;27;20039;-68
2021/08/08 05:14:19;;;;;;;10.52;5.80;;;;;;;;;;5110344;27;20371;-68
2021/08/08 05:16:45;;;;;;;16.05;5.63;;;;;;;;;;5118444;27;20067;-68
2021/08/08 05:19:11;;;;;;;7.60;5.00;;;;;;;;;;5104766;27;20031;-67
2021/08/08 05:21:37;;;;;;;8.63;4.88;;;;;;;;;;5108801;27;20051;-67
2021/08/08 05:24:04;;;;;;;9.07;5.40;;;;;;;;;;5111100;28;20116;-67
2021/08/08 05:26:30;;;;;;;10.00;5.65;;;;;;;;;;5116819;28;20541;-67
2021/08/08 05:28:57;;;;;;;11.35;6.18;;;;;;;;;;5109269;28;20447;-67
2021/08/08 05:31:23;;;;;;;14.90;6.50;;;;;;;;;;5107698;28;20048;-67
2021/08/08 05:33:49;;;;;;;16.70;6.85;;;;;;;;;;5117192;28;20171;-67
2021/08/08 05:36:15;;;;;;;21.20;8.88;;;;;;;;;;5101194;28;20046;-68
2021/08/08 05:38:41;;;;;;;14.27;7.95;;;;;;;;;;5112231;28;20098;-68
2021/08/08 05:41:11;;;;;;;15.70;7.63;;;;;;;;;;5102690;28;20551;-67
2021/08/08 05:43:38;;;;;;;13.18;6.30;;;;;;;;;;5118199;28;20036;-65
2021/08/08 05:46:04;;;;;;;15.38;7.63;;;;;;;;;;5100363;28;20043;-65
2021/08/08 05:48:31;;;;;;;24.60;9.55;;;;;;;;;;5110883;28;20044;-65
2021/08/08 05:50:57;;;;;;;24.30;9.80;;;;;;;;;;5108906;28;20067;-65
2021/08/08 05:53:23;;;;;;;20.60;10.00;;;;;;;;;;5108339;28;20082;-65
2021/08/08 05:55:49;;;;;;;16.38;8.27;;;;;;;;;;5108390;28;20486;-65
2021/08/08 05:58:15;;;;;;;18.52;9.52;;;;;;;;;;5113083;28;20118;-65
2021/08/08 06:00:42;;;;;;;27.98;11.73;;;;;;;;;;5106898;28;20429;-65
2021/08/08 06:03:09;;;;;;;19.48;10.32;;;;;;;;;;5108089;28;20149;-65
2021/08/08 06:05:35;;;;;;;27.13;12.15;;;;;;;;;;5103851;28;20063;-65
2021/08/08 06:08:01;;;;;;;29.70;13.60;;;;;;;;;;5113873;28;20057;-65
2021/08/08 06:10:28;;;;;;;27.65;12.60;;;;;;;;;;5118426;28;20074;-66
2021/08/08 06:12:54;;;;;;;25.98;12.23;;;;;;;;;;5102197;28;20049;-66
2021/08/08 06:15:20;;;;;;;36.78;16.33;;;;;;;;;;5110750;28;20042;-66
2021/08/08 06:17:47;;;;;;;29.55;13.90;;;;;;;;;;5108565;28;20524;-66
2021/08/08 06:20:13;;;;;;;49.00;15.48;;;;;;;;;;5116712;28;20043;-66
2021/08/08 06:22:39;;;;;;;28.60;14.07;;;;;;;;;;5101514;28;20035;-66
2021/08/08 06:25:06;;;;;;;30.60;14.27;;;;;;;;;;5111240;28;20059;-66
2021/08/08 06:27:32;;;;;;;30.35;13.85;;;;;;;;;;5113610;27;20468;-66
2021/08/08 06:29:58;;;;;;;48.20;17.58;;;;;;;;;;5116120;27;20047;-66
2021/08/08 06:32:25;;;;;;;52.90;18.95;;;;;;;;;;5107508;27;20085;-66
2021/08/08 06:34:51;;;;;;;44.15;16.10;;;;;;;;;;5121928;27;20437;-66
2021/08/08 06:37:17;;;;;;;28.08;14.38;;;;;;;;;;5109357;27;20601;-66
2021/08/08 06:39:43;;;;;;;48.72;17.55;;;;;;;;;;5119340;27;20050;-67
2021/08/08 06:42:09;;;;;;;34.58;14.40;;;;;;;;;;5107177;27;20050;-67
2021/08/08 06:44:36;;;;;;;37.42;15.45;;;;;;;;;;5100725;28;20487;-67
2021/08/08 06:47:02;;;;;;;29.48;13.45;;;;;;;;;;5117797;27;20031;-67
2021/08/08 06:49:28;;;;;;;27.88;12.80;;;;;;;;;;5101926;27;20042;-67
2021/08/08 06:51:54;;;;;;;29.65;11.43;;;;;;;;;;5118304;27;20059;-68
2021/08/08 06:54:20;;;;;;;26.50;11.75;;;;;;;;;;5113130;27;20096;-68
2021/08/08 06:56:46;;;;;;;28.13;12.63;;;;;;;;;;5114658;27;20035;-68
2021/08/08 06:59:12;;;;;;;28.58;12.50;;;;;;;;;;5104332;27;20045;-68
2021/08/08 07:01:39;;;;;;;26.15;11.98;;;;;;;;;;5119322;27;20055;-68
2021/08/08 07:04:05;;;;;;;23.95;12.10;;;;;;;;;;5104770;27;20044;-68
2021/08/08 07:06:31;;;;;;;18.40;9.48;;;;;;;;;;5109423;27;20040;-68
2021/08/08 07:08:57;;;;;;;19.65;11.27;;;;;;;;;;5106856;27;20156;-68
2021/08/08 07:11:24;;;;;;;30.55;11.75;;;;;;;;;;5120188;27;20046;-68
2021/08/08 07:13:50;;;;;;;26.00;11.23;;;;;;;;;;5109759;27;20114;-68
2021/08/08 07:16:16;;;;;;;22.73;10.00;;;;;;;;;;5116551;27;20035;-68
2021/08/08 07:18:43;;;;;;;26.52;10.48;;;;;;;;;;5110834;27;20057;-68
2021/08/08 07:21:09;;;;;;;21.20;9.82;;;;;;;;;;5117643;27;20040;-68
2021/08/08 07:23:35;;;;;;;14.07;8.20;;;;;;;;;;5080809;27;20047;-68
2021/08/08 07:26:02;;;;;;;23.83;8.77;;;;;;;;;;5112269;27;20416;-68
2021/08/08 07:28:28;;;;;;;16.05;8.25;;;;;;;;;;5099445;27;20467;-68
2021/08/08 07:30:55;;;;;;;20.27;9.23;;;;;;;;;;5111175;27;20127;-68
2021/08/08 07:33:21;;;;;;;23.90;8.63;;;;;;;;;;5111639;27;20048;-68
2021/08/08 07:35:48;;;;;;;22.40;8.73;;;;;;;;;;5106806;27;20040;-68
2021/08/08 07:38:14;;;;;;;22.38;8.55;;;;;;;;;;5117383;27;20402;-68
2021/08/08 07:40:41;;;;;;;18.10;8.45;;;;;;;;;;5105924;27;20384;-68
2021/08/08 07:43:07;;;;;;;19.80;8.57;;;;;;;;;;5113481;27;20019;-68
2021/08/08 07:45:33;;;;;;;23.67;8.57;;;;;;;;;;5114382;27;20035;-68
2021/08/08 07:47:59;;;;;;;20.33;8.10;;;;;;;;;;5118151;27;20085;-68
2021/08/08 07:50:25;;;;;;;19.20;6.93;;;;;;;;;;5109606;27;20031;-68
2021/08/08 07:52:51;;;;;;;15.50;6.68;;;;;;;;;;5115852;27;20047;-67
2021/08/08 07:55:17;;;;;;;19.50;5.95;;;;;;;;;;5110222;27;20455;-67
2021/08/08 07:57:44;;;;;;;20.90;6.57;;;;;;;;;;5110998;27;20051;-67
2021/08/08 08:00:10;;;;;;;15.77;5.43;;;;;;;;;;5108268;27;20036;-67
2021/08/08 08:02:36;;;;;;;19.65;6.93;;;;;;;;;;5116230;27;20056;-67
2021/08/08 08:05:02;;;;;;;19.23;6.35;;;;;;;;;;5116981;27;20275;-67
2021/08/08 08:07:28;;;;;;;17.33;6.30;;;;;;;;;;5102932;27;20031;-67
2021/08/08 08:09:54;;;;;;;18.35;5.97;;;;;;;;;;5112292;27;20066;-68
2021/08/08 08:12:21;;;;;;;16.90;6.22;;;;;;;;;;5106597;27;20093;-68
2021/08/08 08:14:47;;;;;;;15.38;5.57;;;;;;;;;;5086287;27;20088;-68
2021/08/08 08:17:13;;;;;;;17.13;6.25;;;;;;;;;;5108791;27;20049;-68
2021/08/08 08:19:39;;;;;;;17.42;6.32;;;;;;;;;;5117707;27;20102;-68
2021/08/08 08:22:05;;;;;;;11.48;4.70;;;;;;;;;;5110629;27;20137;-68
2021/08/08 08:24:31;;;;;;;13.57;4.50;;;;;;;;;;5112377;27;20045;-68
2021/08/08 08:26:58;;;;;;;17.30;5.70;;;;;;;;;;5111346;27;20036;-68
2021/08/08 08:29:24;;;;;;;13.55;5.10;;;;;;;;;;5115647;27;20081;-68
2021/08/08 08:31:50;;;;;;;12.88;4.00;;;;;;;;;;5109500;27;20039;-69
2021/08/08 08:34:16;;;;;;;10.32;4.00;;;;;;;;;;5110305;27;20055;-68
2021/08/08 08:36:42;;;;;;;10.95;3.88;;;;;;;;;;5108461;27;20089;-68
2021/08/08 08:39:08;;;;;;;7.70;2.97;;;;;;;;;;5116967;27;20506;-68
2021/08/08 08:41:36;;;;;;;9.57;3.40;;;;;;;;;;5112930;27;20150;-68
2021/08/08 08:44:02;;;;;;;10.77;3.53;;;;;;;;;;5114650;27;20046;-68
2021/08/08 08:46:28;;;;;;;12.95;3.92;;;;;;;;;;5112816;27;20058;-68
2021/08/08 08:48:55;;;;;;;11.25;3.70;;;;;;;;;;5111307;27;20130;-68
2021/08/08 08:51:29;;;;;;;7.43;3.88;;;;;;;;;;5116517;27;20035;-68
2021/08/08 08:53:55;;;;;;;12.60;4.13;;;;;;;;;;5109485;27;20043;-68
2021/08/08 08:56:22;;;;;;;12.23;3.90;;;;;;;;;;5115285;27;20085;-68
2021/08/08 08:58:48;;;;;;;8.95;3.60;;;;;;;;;;5108568;27;20027;-68
2021/08/08 09:01:14;;;;;;;14.48;4.63;;;;;;;;;;5111304;27;20032;-68
2021/08/08 09:03:40;;;;;;;13.65;4.18;;;;;;;;;;5108137;27;20502;-68
2021/08/08 09:06:07;;;;;;;20.05;4.82;;;;;;;;;;5099443;28;20051;-68
2021/08/08 09:08:33;;;;;;;15.10;5.00;;;;;;;;;;5105252;27;20075;-68
2021/08/08 09:11:04;;;;;;;11.50;4.43;;;;;;;;;;5109422;27;20037;-68
2021/08/08 09:13:30;;;;;;;15.98;5.10;;;;;;;;;;5107210;27;20040;-68
2021/08/08 09:15:56;;;;;;;17.00;5.43;;;;;;;;;;5112973;27;20042;-68
2021/08/08 09:18:23;;;;;;;16.33;5.65;;;;;;;;;;5107646;27;20486;-68
2021/08/08 09:20:50;;;;;;;14.70;5.57;;;;;;;;;;5112417;27;20548;-68
2021/08/08 09:23:16;;;;;;;23.23;6.50;;;;;;;;;;5111797;27;20472;-68
2021/08/08 09:25:56;;;;;;;17.00;5.93;;;;;;;;;;5114019;27;20039;-68
2021/08/08 09:28:27;;;;;;;17.52;5.30;;;;;;;;;;5106617;28;20450;-68
2021/08/08 09:30:54;;;;;;;14.82;5.53;;;;;;;;;;5111007;28;20054;-68
2021/08/08 09:33:20;;;;;;;18.05;6.07;;;;;;;;;;5116321;28;20514;-68
2021/08/08 09:35:50;;;;;;;15.20;4.88;;;;;;;;;;5111947;28;20088;-68
2021/08/08 09:38:18;;;;;;;22.48;5.30;;;;;;;;;;5107517;28;20045;-68
2021/08/08 09:40:44;;;;;;;14.63;4.82;;;;;;;;;;5096429;28;20044;-68
2021/08/08 09:43:11;;;;;;;18.70;4.97;;;;;;;;;;5118734;28;20412;-68
2021/08/08 09:45:41;;;;;;;14.50;4.70;;;;;;;;;;5107680;28;20578;-68
2021/08/08 09:48:10;;;;;;;14.65;4.28;;;;;;;;;;5108547;28;20442;-68
2021/08/08 09:50:37;;;;;;;15.60;4.57;;;;;;;;;;5106074;28;20039;-68
2021/08/08 09:53:04;;;;;;;13.70;4.20;;;;;;;;;;5112653;28;20039;-68
2021/08/08 09:55:35;;;;;;;12.55;3.80;;;;;;;;;;5079621;28;20052;-68
2021/08/08 09:58:22;;;;;;;15.65;3.72;;;;;;;;;;5109825;28;20078;-68
2021/08/08 10:00:49;;;;;;;18.85;4.68;;;;;;;;;;5103037;28;20050;-68
2021/08/08 10:03:17;;;;;;;15.02;4.47;;;;;;;;;;5117791;27;20082;-68
2021/08/08 10:05:44;;;;;;;14.02;4.00;;;;;;;;;;5108393;27;20426;-68
2021/08/08 10:08:12;;;;;;;14.43;3.70;;;;;;;;;;5111997;27;20106;-68
2021/08/08 10:10:40;;;;;;;13.75;4.07;;;;;;;;;;5111156;27;20047;-68
2021/08/08 10:13:09;;;;;;;13.65;3.22;;;;;;;;;;5121147;27;20036;-68
2021/08/08 10:15:46;;;;;;;13.45;3.30;;;;;;;;;;5111660;27;20039;-69
2021/08/08 10:18:16;;;;;;;15.73;3.78;;;;;;;;;;5108328;27;20478;-69
2021/08/08 10:20:43;;;;;;;12.73;3.25;;;;;;;;;;5109759;27;20122;-69
2021/08/08 10:23:14;;;;;;;12.13;3.08;;;;;;;;;;5117746;27;20043;-69
2021/08/08 10:25:40;;;;;;;11.82;2.85;;;;;;;;;;5106183;27;20059;-69
2021/08/08 10:28:07;;;;;;;11.85;2.90;;;;;;;;;;5119109;27;20092;-69
2021/08/08 10:30:35;;;;;;;13.45;3.40;;;;;;;;;;5116440;27;20051;-69
2021/08/08 10:33:02;;;;;;;11.25;2.80;;;;;;;;;;5113376;27;20038;-69
2021/08/08 10:35:35;;;;;;;11.10;3.28;;;;;;;;;;5111438;27;20035;-69
2021/08/08 10:38:01;;;;;;;10.73;2.77;;;;;;;;;;5078808;27;20409;-69
2021/08/08 10:40:31;;;;;;;11.38;2.97;;;;;;;;;;5117488;27;20107;-69
2021/08/08 10:42:58;;;;;;;12.00;2.63;;;;;;;;;;5113076;27;20027;-69
2021/08/08 10:45:25;;;;;;;11.20;3.53;;;;;;;;;;5116450;27;20161;-69
2021/08/08 10:47:59;;;;;;;8.15;3.05;;;;;;;;;;5108810;27;20044;-69
2021/08/08 10:50:48;;;;;;;13.30;3.72;;;;;;;;;;5119537;27;20035;-69
2021/08/08 10:53:25;;;;;;;10.13;2.70;;;;;;;;;;5114869;27;20051;-69
2021/08/08 10:56:02;;;;;;;15.07;4.97;;;;;;;;;;5097868;27;20479;-69
2021/08/08 10:58:32;;;;;;;12.25;3.65;;;;;;;;;;5109478;27;20044;-69
2021/08/08 11:00:58;;;;;;;17.83;4.13;;;;;;;;;;5115623;27;20036;-69
2021/08/08 11:03:24;;;;;;;13.10;4.30;;;;;;;;;;5108199;27;20039;-69
2021/08/08 11:05:51;;;;;;;12.32;3.75;;;;;;;;;;5111859;27;20047;-69
2021/08/08 11:08:17;;;;;;;17.38;4.22;;;;;;;;;;5076473;27;20390;-69
2021/08/08 11:10:44;;;;;;;18.00;5.38;;;;;;;;;;5118720;27;20036;-70
2021/08/08 11:13:23;;;;;;;17.67;4.88;;;;;;;;;;5106911;27;20035;-70
2021/08/08 11:15:50;;;;;;;15.48;5.13;;;;;;;;;;5108446;27;20400;-69
2021/08/08 11:18:17;;;;;;;18.00;4.80;;;;;;;;;;5108659;27;20084;-69
2021/08/08 11:20:43;;;;;;;14.10;5.40;;;;;;;;;;5116675;27;20478;-69
2021/08/08 11:23:10;;;;;;;14.35;5.35;;;;;;;;;;5103052;27;20140;-69
2021/08/08 11:25:40;;;;;;;16.77;5.95;;;;;;;;;;5111483;27;20415;-69
2021/08/08 11:28:07;;;;;;;18.00;5.10;;;;;;;;;;5110769;27;20040;-69
2021/08/08 11:30:40;;;;;;;15.90;5.07;;;;;;;;;;5116834;27;20073;-69
2021/08/08 11:33:07;;;;;;;15.23;5.57;;;;;;;;;;5109007;27;20035;-69
2021/08/08 11:35:33;;;;;;;16.73;5.20;;;;;;;;;;5110321;27;20042;-69
2021/08/08 11:37:59;;;;;;;15.40;4.88;;;;;;;;;;5116132;27;20084;-69
2021/08/08 11:40:30;;;;;;;15.10;4.40;;;;;;;;;;5091884;27;20410;-69
2021/08/08 11:43:03;;;;;;;12.57;3.85;;;;;;;;;;5110853;27;20054;-69
2021/08/08 11:45:37;;;;;;;15.20;4.00;;;;;;;;;;5106891;27;20479;-69
2021/08/08 11:48:03;;;;;;;12.55;4.28;;;;;;;;;;5116841;27;20062;-69
2021/08/08 11:50:30;;;;;;;13.10;3.42;;;;;;;;;;5110494;27;20494;-69
2021/08/08 11:53:00;;;;;;;11.98;3.15;;;;;;;;;;5111730;27;20119;-69
2021/08/08 11:55:27;;;;;;;15.00;3.85;;;;;;;;;;5106747;27;20298;-69
2021/08/08 11:58:06;;;;;;;12.15;3.33;;;;;;;;;;5116091;27;20112;-69
2021/08/08 12:00:35;;;;;;;12.98;3.25;;;;;;;;;;5096494;27;20399;-69
2021/08/08 12:03:01;;;;;;;12.05;3.00;;;;;;;;;;5111781;27;20047;-69
2021/08/08 12:05:27;;;;;;;13.73;3.13;;;;;;;;;;5109136;27;20522;-69
2021/08/08 12:07:54;;;;;;;8.48;2.75;;;;;;;;;;5117614;27;20430;-70
2021/08/08 12:10:30;;;;;;;11.38;3.03;;;;;;;;;;5110102;27;20028;-70
2021/08/08 12:12:56;;;;;;;10.48;2.53;;;;;;;;;;5113515;27;20108;-70
2021/08/08 12:15:33;;;;;;;11.13;2.58;;;;;;;;;;5112538;27;20036;-70
2021/08/08 12:18:00;;;;;;;11.93;3.25;;;;;;;;;;5118103;27;20035;-70
2021/08/08 12:20:33;;;;;;;11.13;2.40;;;;;;;;;;5105357;27;20110;-70
2021/08/08 12:23:03;;;;;;;9.90;2.63;;;;;;;;;;5112876;27;20056;-70
2021/08/08 12:25:29;;;;;;;10.00;2.25;;;;;;;;;;5105657;27;20321;-70
2021/08/08 12:27:55;;;;;;;8.30;2.50;;;;;;;;;;5115905;27;20114;-70
2021/08/08 12:30:23;;;;;;;7.10;2.28;;;;;;;;;;5109524;27;20042;-70
2021/08/08 12:32:49;;;;;;;9.60;2.22;;;;;;;;;;5107771;27;20035;-70
2021/08/08 12:35:17;;;;;;;9.57;2.60;;;;;;;;;;5116763;27;20433;-70
2021/08/08 12:37:44;;;;;;;10.43;2.35;;;;;;;;;;5106546;27;20047;-70
2021/08/08 12:40:10;;;;;;;9.27;2.45;;;;;;;;;;5110617;27;20040;-70
2021/08/08 12:42:37;;;;;;;8.85;2.33;;;;;;;;;;5104392;27;20031;-70
2021/08/08 12:45:08;;;;;;;10.50;2.40;;;;;;;;;;5118085;27;20024;-71
2021/08/08 12:47:35;;;;;;;9.15;2.65;;;;;;;;;;5108962;27;20104;-71
2021/08/08 12:50:12;;;;;;;9.15;2.75;;;;;;;;;;5112702;27;20036;-71
2021/08/08 12:52:38;;;;;;;8.63;2.28;;;;;;;;;;5105687;27;20534;-71
2021/08/08 12:55:04;;;;;;;12.40;2.97;;;;;;;;;;5118587;27;20064;-71
2021/08/08 12:57:30;;;;;;;10.18;2.42;;;;;;;;;;5110540;27;20122;-71
2021/08/08 12:59:56;;;;;;;8.93;2.45;;;;;;;;;;5083216;27;20043;-71
2021/08/08 13:02:22;;;;;;;10.70;2.40;;;;;;;;;;5107969;27;20031;-71
2021/08/08 13:04:48;;;;;;;9.05;2.25;;;;;;;;;;5118327;27;20047;-73
2021/08/08 13:07:15;;;;;;;7.80;1.85;;;;;;;;;;5102340;27;20761;-72
2021/08/08 13:09:41;;;;;;;10.85;2.55;;;;;;;;;;5110565;27;20390;-72
2021/08/08 13:12:07;;;;;;;9.38;2.33;;;;;;;;;;5112973;27;20106;-72
2021/08/08 13:14:33;;;;;;;9.02;2.50;;;;;;;;;;5087202;27;20047;-72
2021/08/08 13:16:59;;;;;;;11.05;2.80;;;;;;;;;;5109154;28;20106;-72
2021/08/08 13:19:25;;;;;;;9.38;2.50;;;;;;;;;;5110851;27;20106;-72
2021/08/08 13:21:52;;;;;;;9.30;2.25;;;;;;;;;;5119691;27;20088;-72
2021/08/08 13:24:18;;;;;;;7.43;2.15;;;;;;;;;;5073305;28;20189;-73
2021/08/08 13:26:44;;;;;;;7.25;2.40;;;;;;;;;;5117298;28;20483;-73
2021/08/08 13:29:10;;;;;;;6.60;2.20;;;;;;;;;;5105074;27;20040;-73
2021/08/08 13:31:36;;;;;;;8.20;2.13;;;;;;;;;;5119544;28;20043;-73
2021/08/08 13:34:02;;;;;;;6.47;2.20;;;;;;;;;;5103654;28;20039;-72
2021/08/08 13:36:29;;;;;;;7.80;2.38;;;;;;;;;;5111646;28;20036;-73
2021/08/08 13:38:55;;;;;;;7.18;2.10;;;;;;;;;;5108946;27;20046;-73
2021/08/08 13:41:21;;;;;;;8.32;2.17;;;;;;;;;;5117071;27;20427;-73
2021/08/08 13:43:47;;;;;;;5.78;2.03;;;;;;;;;;5114189;27;20448;-73
2021/08/08 13:46:13;;;;;;;8.05;2.20;;;;;;;;;;5087416;28;20048;-73
2021/08/08 13:48:39;;;;;;;7.82;1.98;;;;;;;;;;5117183;27;20118;-73
2021/08/08 13:51:06;;;;;;;8.98;1.92;;;;;;;;;;5115879;27;20084;-73
2021/08/08 13:53:32;;;;;;;8.82;2.35;;;;;;;;;;5082370;28;20408;-72
2021/08/08 13:55:58;;;;;;;9.85;2.47;;;;;;;;;;5114206;27;20035;-72
2021/08/08 13:58:24;;;;;;;7.97;2.40;;;;;;;;;;5120694;27;20039;-72
2021/08/08 14:00:50;;;;;;;5.93;2.28;;;;;;;;;;5107559;27;20054;-72
2021/08/08 14:03:17;;;;;;;8.80;2.17;;;;;;;;;;5114285;27;20059;-72
2021/08/08 14:05:44;;;;;;;8.00;2.35;;;;;;;;;;5114954;27;20563;-72
2021/08/08 14:08:11;;;;;;;7.25;1.80;;;;;;;;;;5118366;27;20039;-71
2021/08/08 14:10:37;;;;;;;6.38;1.95;;;;;;;;;;5107737;27;20039;-71
2021/08/08 14:13:03;;;;;;;8.85;2.47;;;;;;;;;;5115849;27;20032;-71
2021/08/08 14:15:30;;;;;;;6.30;1.95;;;;;;;;;;5113501;27;20486;-71
2021/08/08 14:17:56;;;;;;;6.28;1.95;;;;;;;;;;5113412;27;20050;-71
2021/08/08 14:20:22;;;;;;;6.78;1.88;;;;;;;;;;5106662;27;20480;-71
2021/08/08 14:22:49;;;;;;;10.57;2.30;;;;;;;;;;5119701;27;20031;-71
2021/08/08 14:25:15;;;;;;;8.75;2.25;;;;;;;;;;5116875;27;20038;-70
2021/08/08 14:27:41;;;;;;;9.48;2.50;;;;;;;;;;5115263;27;20471;-70
2021/08/08 14:30:08;;;;;;;7.82;2.30;;;;;;;;;;5108320;27;20455;-70
2021/08/08 14:32:34;;;;;;;9.00;2.35;;;;;;;;;;5119063;27;20369;-70